Time;durP1;ratioP1;P1;durP2;ratioP2;P2;SDS_P1;SDS_P2;PMS_P1;PMS_P2;Temp;Humidity;BMP_temperature;BMP_pressure;BME280_temperature;BME280_humidity;BME280_pressure;Samples;Min_cycle;Max_cycle;Signal;HPM_P1;HPM_P2
2021/05/19 14:46:32;;;;;;;4.57;3.67;;;11.30;99.90;;;;;;6215156;23;20419;-89
2021/05/19 16:52:56;;;;;;;3.00;2.80;;;15.20;99.90;;;;;;6222553;22;20545;-89
2021/05/19 16:58:29;;;;;;;3.60;3.30;;;14.80;99.90;;;;;;6241981;22;20731;-89
2021/05/19 17:09:48;;;;;;;3.37;3.17;;;13.70;99.90;;;;;;6224226;22;20436;-88
2021/05/19 17:58:48;;;;;;;4.77;4.30;;;13.40;99.90;;;;;;6247698;23;20434;-58
2021/05/19 18:01:14;;;;;;;5.00;4.60;;;13.70;99.90;;;;;;6248255;23;20418;-59
2021/05/19 18:03:41;;;;;;;4.40;4.00;;;13.80;99.90;;;;;;6243227;23;20500;-58
2021/05/19 18:06:08;;;;;;;6.00;5.10;;;13.80;99.90;;;;;;6247954;23;20572;-58
2021/05/19 18:08:35;;;;;;;5.80;4.67;;;13.70;99.90;;;;;;6248281;23;20421;-57
2021/05/19 18:11:01;;;;;;;4.63;4.23;;;13.50;99.90;;;;;;6247738;23;20782;-58
2021/05/19 18:13:28;;;;;;;6.93;4.47;;;13.30;99.90;;;;;;6247118;23;22344;-58
2021/05/19 18:15:56;;;;;;;4.50;4.10;;;13.30;99.90;;;;;;6247863;23;20452;-58
2021/05/19 18:18:23;;;;;;;7.10;4.77;;;13.20;99.90;;;;;;6247742;23;20454;-58
2021/05/19 18:20:50;;;;;;;5.53;4.30;;;13.10;99.90;;;;;;6247516;23;20418;-58
2021/05/19 18:23:17;;;;;;;6.83;5.00;;;12.80;99.90;;;;;;6247819;23;20830;-58
2021/05/19 18:25:50;;;;;;;4.87;4.27;;;12.70;99.90;;;;;;6247488;23;20425;-58
2021/05/19 18:28:17;;;;;;;5.70;3.93;;;12.60;99.90;;;;;;6248190;23;20789;-58
2021/05/19 18:30:49;;;;;;;7.80;5.30;;;12.60;99.90;;;;;;6246954;23;20418;-58
2021/05/19 18:33:23;;;;;;;6.10;5.50;;;12.50;99.90;;;;;;6248150;23;20453;-58
2021/05/19 18:35:50;;;;;;;8.50;7.30;;;12.40;99.90;;;;;;6247313;23;20403;-58
2021/05/19 18:38:17;;;;;;;12.70;7.50;;;12.30;99.90;;;;;;6248043;23;20418;-59
2021/05/19 18:40:46;;;;;;;8.43;5.80;;;12.20;99.90;;;;;;6247508;23;20426;-59
2021/05/19 18:43:13;;;;;;;7.20;5.80;;;12.10;99.90;;;;;;6246720;23;20421;-59
2021/05/19 18:45:40;;;;;;;7.83;6.20;;;12.00;99.90;;;;;;6246137;23;20426;-59
2021/05/19 18:48:08;;;;;;;8.60;5.07;;;12.00;99.90;;;;;;6247301;23;20404;-59
2021/05/19 18:50:36;;;;;;;8.33;5.37;;;12.00;99.90;;;;;;6246376;23;20833;-59
2021/05/19 18:53:07;;;;;;;7.87;5.00;;;11.90;99.90;;;;;;6247907;23;20524;-59
2021/05/19 18:55:33;;;;;;;8.90;5.87;;;11.80;99.90;;;;;;6246726;23;20418;-59
2021/05/19 18:58:00;;;;;;;6.40;5.20;;;11.70;99.90;;;;;;6226550;23;20505;-58
2021/05/19 19:00:27;;;;;;;6.07;5.47;;;11.60;99.90;;;;;;6216245;23;20506;-57
2021/05/19 19:02:54;;;;;;;6.10;5.50;;;11.70;99.90;;;;;;6213957;23;20423;-59
2021/05/19 19:05:23;;;;;;;6.53;5.13;;;11.70;99.90;;;;;;6215386;23;20477;-59
2021/05/19 19:07:51;;;;;;;6.83;4.57;;;11.80;99.90;;;;;;6219011;23;20473;-58
2021/05/19 19:10:19;;;;;;;6.20;5.50;;;11.70;99.90;;;;;;6218883;23;20389;-59
2021/05/19 19:12:48;;;;;;;6.73;5.73;;;11.80;99.90;;;;;;6218678;23;20452;-59
2021/05/19 19:15:15;;;;;;;6.50;5.90;;;11.70;99.90;;;;;;6219086;23;20442;-59
2021/05/19 19:17:42;;;;;;;6.47;5.60;;;11.80;99.90;;;;;;6219222;23;20393;-59
2021/05/19 19:20:10;;;;;;;7.70;5.30;;;11.80;99.90;;;;;;6218799;23;20871;-59
2021/05/19 19:22:38;;;;;;;5.87;4.67;;;11.80;99.90;;;;;;6218927;23;20854;-59
2021/05/19 19:25:07;;;;;;;5.73;5.20;;;11.70;99.90;;;;;;6219074;23;20422;-59
2021/05/19 19:27:33;;;;;;;8.10;4.80;;;11.60;99.90;;;;;;6218670;23;20423;-59
2021/05/19 19:30:00;;;;;;;9.50;5.10;;;11.50;99.90;;;;;;6218327;23;20419;-59
2021/05/19 19:32:27;;;;;;;7.07;4.67;;;11.40;99.90;;;;;;6218140;23;20442;-59
2021/05/19 19:34:54;;;;;;;9.13;6.20;;;11.40;99.90;;;;;;6216925;23;20852;-59
2021/05/19 19:37:23;;;;;;;8.30;5.50;;;11.30;99.90;;;;;;6218314;23;20422;-59
2021/05/19 19:39:52;;;;;;;8.20;6.30;;;11.20;99.90;;;;;;6216920;23;20434;-59
2021/05/19 19:42:21;;;;;;;6.80;6.10;;;11.20;99.90;;;;;;6217887;23;20521;-59
2021/05/19 19:44:49;;;;;;;7.00;5.80;;;11.20;99.90;;;;;;6218907;23;20425;-59
2021/05/19 19:47:20;;;;;;;6.00;5.10;;;11.20;99.90;;;;;;6218270;23;20489;-59
2021/05/19 19:49:48;;;;;;;8.50;5.33;;;11.20;99.90;;;;;;6218334;23;20419;-59
2021/05/19 19:52:15;;;;;;;6.97;5.13;;;11.20;99.90;;;;;;6218815;23;20465;-59
2021/05/19 19:54:41;;;;;;;7.20;5.10;;;11.20;99.90;;;;;;6218280;23;20490;-59
2021/05/19 19:57:12;;;;;;;9.43;5.90;;;11.20;99.90;;;;;;6227518;23;20444;-59
2021/05/19 19:59:40;;;;;;;7.00;6.27;;;11.20;99.90;;;;;;6248407;23;20425;-59
2021/05/19 20:02:15;;;;;;;6.43;5.73;;;11.20;99.90;;;;;;6248955;23;20878;-59
2021/05/19 20:04:42;;;;;;;6.70;5.90;;;11.30;99.90;;;;;;6246126;23;20467;-59
2021/05/19 20:07:09;;;;;;;7.03;5.93;;;11.20;99.90;;;;;;6248190;23;20808;-59
2021/05/19 20:09:39;;;;;;;11.03;5.80;;;11.10;99.90;;;;;;6248984;23;20425;-59
2021/05/19 20:12:07;;;;;;;6.80;6.20;;;11.00;99.90;;;;;;6248487;23;20462;-59
2021/05/19 20:14:34;;;;;;;7.10;6.30;;;10.70;99.90;;;;;;6248832;23;20442;-61
2021/05/19 20:17:01;;;;;;;7.50;6.80;;;10.60;99.90;;;;;;6248811;23;20681;-61
2021/05/19 20:19:28;;;;;;;8.33;7.60;;;10.60;99.90;;;;;;6248056;23;20862;-62
2021/05/19 20:21:55;;;;;;;9.30;8.50;;;10.50;99.90;;;;;;6248450;23;20474;-63
2021/05/19 20:24:22;;;;;;;10.23;9.30;;;10.30;99.90;;;;;;6248453;23;20693;-65
2021/05/19 20:26:48;;;;;;;12.60;11.20;;;10.30;99.90;;;;;;6248705;23;20418;-65
2021/05/19 20:29:20;;;;;;;11.47;10.37;;;10.20;99.90;;;;;;6247931;23;20414;-64
2021/05/19 20:31:47;;;;;;;11.80;10.70;;;10.20;99.90;;;;;;6248402;23;20414;-67
2021/05/19 20:34:18;;;;;;;11.27;10.23;;;10.20;99.90;;;;;;6248048;23;20458;-64
2021/05/19 20:36:44;;;;;;;11.93;10.73;;;10.20;99.90;;;;;;6249267;23;20680;-65
2021/05/19 20:39:14;;;;;;;11.00;9.90;;;10.10;99.90;;;;;;6246743;23;20842;-65
2021/05/19 20:41:41;;;;;;;10.50;9.60;;;10.00;99.90;;;;;;6247960;23;20440;-66
2021/05/19 20:44:08;;;;;;;10.20;9.20;;;10.10;99.90;;;;;;6247530;23;20525;-66
2021/05/19 20:46:37;;;;;;;10.83;9.73;;;10.10;99.90;;;;;;6247895;23;20440;-66
2021/05/19 20:49:06;;;;;;;9.87;8.97;;;10.10;99.90;;;;;;6248063;23;20426;-66
2021/05/19 20:51:35;;;;;;;12.53;9.83;;;10.20;99.90;;;;;;6248338;23;20418;-65
2021/05/19 20:54:05;;;;;;;10.03;9.03;;;10.10;99.90;;;;;;6248003;23;21003;-65
2021/05/19 20:56:35;;;;;;;11.20;10.10;;;10.10;99.90;;;;;;6248215;23;20702;-66
2021/05/19 20:59:02;;;;;;;11.63;10.53;;;10.00;99.90;;;;;;6248459;23;20418;-66
2021/05/19 21:01:29;;;;;;;12.43;11.03;;;10.00;99.90;;;;;;6248783;23;20426;-65
2021/05/19 21:03:58;;;;;;;12.23;11.03;;;9.90;99.90;;;;;;6244211;23;20421;-65
2021/05/19 21:06:27;;;;;;;12.40;11.17;;;9.90;99.90;;;;;;6248363;23;20418;-65
2021/05/19 21:08:56;;;;;;;14.83;12.30;;;9.90;99.90;;;;;;6247815;23;20487;-65
2021/05/19 21:11:23;;;;;;;12.87;11.67;;;10.00;99.90;;;;;;6249121;23;20422;-65
2021/05/19 21:13:50;;;;;;;12.00;10.80;;;10.00;99.90;;;;;;6247897;23;20902;-65
2021/05/19 21:16:20;;;;;;;12.33;11.23;;;10.00;99.90;;;;;;6248269;23;20830;-64
2021/05/19 21:18:47;;;;;;;12.30;11.13;;;10.10;99.90;;;;;;6248036;23;20422;-64
2021/05/19 21:21:19;;;;;;;10.90;9.80;;;10.00;99.90;;;;;;6247705;23;20418;-64
2021/05/19 21:23:48;;;;;;;13.10;10.57;;;10.00;99.90;;;;;;6247616;23;20495;-64
2021/05/19 21:26:18;;;;;;;13.53;12.13;;;10.10;99.90;;;;;;6248744;23;20710;-64
2021/05/19 21:28:48;;;;;;;11.77;10.67;;;10.10;99.90;;;;;;6247436;23;20418;-64
2021/05/19 21:31:14;;;;;;;11.40;10.47;;;10.00;99.90;;;;;;6248355;23;20418;-64
2021/05/19 21:33:41;;;;;;;11.13;10.03;;;10.00;99.90;;;;;;6247233;23;20446;-64
2021/05/19 21:36:10;;;;;;;12.80;11.53;;;10.00;99.90;;;;;;6248195;23;20471;-64
2021/05/19 21:38:39;;;;;;;12.83;11.63;;;10.00;99.90;;;;;;6248032;23;20491;-64
2021/05/19 21:41:06;;;;;;;12.63;11.27;;;9.90;99.90;;;;;;6247647;23;20783;-64
2021/05/19 21:43:34;;;;;;;11.93;10.83;;;10.00;99.90;;;;;;6247456;23;20414;-64
2021/05/19 21:46:05;;;;;;;13.27;12.00;;;9.90;99.90;;;;;;6247760;23;20395;-64
2021/05/19 21:48:32;;;;;;;12.03;10.77;;;9.90;99.90;;;;;;6248132;23;20424;-64
2021/05/19 21:50:58;;;;;;;12.23;10.70;;;9.90;99.90;;;;;;6248505;23;20683;-64
2021/05/19 21:53:25;;;;;;;10.13;9.23;;;9.90;99.90;;;;;;6247790;23;20420;-64
2021/05/19 21:55:53;;;;;;;11.63;10.30;;;9.80;99.90;;;;;;6247202;23;20422;-64
2021/05/19 21:58:19;;;;;;;12.03;10.73;;;9.80;99.90;;;;;;6247850;23;20450;-64
2021/05/19 22:00:50;;;;;;;11.77;10.67;;;9.80;99.90;;;;;;6246836;23;20916;-64
2021/05/19 22:03:23;;;;;;;12.63;11.40;;;9.70;99.90;;;;;;6246595;23;20985;-64
2021/05/19 22:05:52;;;;;;;11.53;10.33;;;9.70;99.90;;;;;;6244996;23;20418;-64
2021/05/19 22:08:22;;;;;;;12.07;10.87;;;9.60;99.90;;;;;;6247695;23;20688;-64
2021/05/19 22:10:53;;;;;;;12.20;10.90;;;9.60;99.90;;;;;;6247642;23;20450;-64
2021/05/19 22:13:19;;;;;;;12.13;10.53;;;9.50;99.90;;;;;;6248343;23;20750;-64
2021/05/19 22:15:48;;;;;;;11.27;10.27;;;9.50;99.90;;;;;;6247785;23;20418;-64
2021/05/19 22:18:20;;;;;;;13.33;12.03;;;9.50;99.90;;;;;;6248081;23;20756;-64
2021/05/19 22:23:48;;;;;;;13.10;11.77;;;9.60;99.90;;;;;;6242485;23;20704;-64
2021/05/19 22:26:16;;;;;;;12.63;11.30;;;9.60;99.90;;;;;;6247836;23;20416;-64
2021/05/19 22:28:46;;;;;;;13.80;11.67;;;9.60;99.90;;;;;;6247683;23;20445;-64
2021/05/19 22:31:13;;;;;;;13.93;12.57;;;9.60;99.90;;;;;;6248007;23;20393;-64
2021/05/19 22:33:41;;;;;;;13.30;12.10;;;9.60;99.90;;;;;;6248477;23;20457;-64
2021/05/19 22:36:10;;;;;;;14.73;13.07;;;9.60;99.90;;;;;;6248119;23;20476;-64
2021/05/19 22:38:37;;;;;;;13.67;12.37;;;9.70;99.90;;;;;;6247773;23;20429;-64
2021/05/19 22:41:04;;;;;;;14.17;12.83;;;9.60;99.90;;;;;;6248089;23;20422;-64
2021/05/19 22:43:31;;;;;;;16.83;12.43;;;9.60;99.90;;;;;;6250892;23;20410;-64
2021/05/19 22:45:58;;;;;;;13.40;11.73;;;9.60;99.90;;;;;;6249206;23;20450;-64
2021/05/19 22:48:26;;;;;;;13.53;12.10;;;9.60;99.90;;;;;;6249720;23;20422;-64
2021/05/19 22:50:54;;;;;;;14.07;12.77;;;9.60;99.90;;;;;;6250175;23;20699;-64
2021/05/19 22:53:20;;;;;;;12.83;11.63;;;9.60;99.90;;;;;;6249960;23;20450;-64
2021/05/19 22:55:47;;;;;;;15.80;14.10;;;9.50;99.90;;;;;;6249762;23;20762;-64
2021/05/19 22:58:16;;;;;;;13.80;12.40;;;9.50;99.90;;;;;;6249971;23;20437;-64
2021/05/19 23:00:46;;;;;;;13.77;12.43;;;9.60;99.90;;;;;;6249571;23;20454;-64
2021/05/19 23:03:13;;;;;;;16.17;13.27;;;9.60;99.90;;;;;;6236867;22;20465;-63
2021/05/19 23:05:40;;;;;;;15.27;13.77;;;9.60;99.90;;;;;;6248212;23;20806;-63
2021/05/19 23:08:08;;;;;;;15.33;13.80;;;9.50;99.90;;;;;;6250306;23;20427;-63
2021/05/19 23:10:35;;;;;;;15.57;14.00;;;9.60;99.90;;;;;;6249578;23;20504;-64
2021/05/19 23:13:01;;;;;;;15.33;13.57;;;9.70;99.90;;;;;;6249847;23;20450;-64
2021/05/19 23:15:28;;;;;;;17.87;15.97;;;9.70;99.90;;;;;;6249452;23;20422;-64
2021/05/19 23:17:55;;;;;;;18.00;16.07;;;9.70;99.90;;;;;;6250620;23;20422;-64
2021/05/19 23:20:22;;;;;;;20.67;17.07;;;9.70;99.90;;;;;;6249713;23;20399;-64
2021/05/19 23:22:49;;;;;;;21.30;19.10;;;9.70;99.90;;;;;;6250261;23;20420;-64
2021/05/19 23:25:17;;;;;;;23.33;19.57;;;9.80;99.90;;;;;;6250136;23;20417;-64
2021/05/19 23:27:44;;;;;;;21.90;19.70;;;9.80;99.90;;;;;;6249256;23;20560;-64
2021/05/19 23:30:12;;;;;;;23.20;20.80;;;9.80;99.90;;;;;;6248880;23;20473;-64
2021/05/19 23:32:41;;;;;;;25.63;22.83;;;9.80;99.90;;;;;;6249731;23;20429;-64
2021/05/19 23:35:09;;;;;;;25.83;23.03;;;9.80;99.90;;;;;;6249536;23;20400;-64
2021/05/19 23:37:36;;;;;;;25.80;22.50;;;9.70;99.90;;;;;;6249485;23;20437;-64
2021/05/19 23:40:04;;;;;;;25.60;22.73;;;9.70;99.90;;;;;;6249386;23;20725;-64
2021/05/19 23:42:34;;;;;;;26.17;23.20;;;9.70;99.90;;;;;;6249574;23;20391;-64
2021/05/19 23:45:00;;;;;;;29.50;23.37;;;9.60;99.90;;;;;;6249806;23;20414;-64
2021/05/19 23:47:27;;;;;;;30.17;25.83;;;9.60;99.90;;;;;;6250324;23;20406;-64
2021/05/19 23:50:04;;;;;;;31.00;27.57;;;9.70;99.90;;;;;;6249454;23;20414;-64
2021/05/19 23:52:31;;;;;;;35.80;28.87;;;9.70;99.90;;;;;;6249375;23;20453;-64
2021/05/19 23:55:01;;;;;;;34.30;26.57;;;9.70;99.90;;;;;;6249387;23;20769;-64
2021/05/19 23:57:27;;;;;;;34.57;27.73;;;9.70;99.90;;;;;;6249276;23;20403;-64
2021/05/19 23:59:55;;;;;;;35.40;27.97;;;9.80;99.90;;;;;;6249113;23;20397;-64
